Terminal Aerodrome Forecast
Issued by NWS

Home | Current Version | Previous Version | Text Only | Print | Product List | Glossary On
Versions: 1 2 3 4 5 6 7 8 9 10 11 12 13 14 15 16 17 18 19 20 21 22 23 24 25 26 27
000
FTUS41 KBOX 291728
TAFHYA
TAF
KHYA 291728Z 2918/3018 33008KT P6SM SKC
     FM300400 17005KT P6SM BKN110
     FM300900 16008KT 3SM -SNRA OVC015
     FM301000 16008KT 3SM -RASN OVC015
     FM301500 18007KT 1SM -RA OVC003=

USA.gov is the U.S. government's official web portal to all federal, state and local government web resources and services.